createdAt,value
2023-08-28T00:02:06.187Z,99669.54
2023-08-28T00:07:13.820Z,99669.61
2023-08-28T00:12:21.189Z,99667.91
2023-08-28T00:17:28.517Z,99660.24
2023-08-28T00:22:35.731Z,99645.00
2023-08-28T00:27:43.128Z,99646.08
2023-08-28T00:32:50.538Z,99652.66
2023-08-28T00:37:57.894Z,99659.33
2023-08-28T00:43:05.355Z,99653.39
2023-08-28T00:48:14.409Z,99655.44
2023-08-28T00:53:22.404Z,99656.55
2023-08-28T00:58:29.872Z,99660.00
2023-08-28T01:03:37.381Z,99657.75
2023-08-28T01:09:01.847Z,99654.38
2023-08-28T01:14:17.146Z,99671.85
2023-08-28T01:19:33.253Z,99677.69
2023-08-28T01:24:47.782Z,99693.45
2023-08-28T01:30:14.131Z,99689.02
2023-08-28T01:35:25.903Z,99690.04
2023-08-28T01:40:39.279Z,99695.34
2023-08-28T01:45:46.714Z,99717.03
2023-08-28T01:50:54.004Z,99701.07
2023-08-28T01:56:26.695Z,99714.33
2023-08-28T02:01:33.993Z,99725.61
2023-08-28T02:06:41.470Z,99715.09
2023-08-28T02:11:50.942Z,99704.52
2023-08-28T02:16:58.321Z,99707.68
2023-08-28T02:22:05.808Z,99727.66
2023-08-28T02:27:13.130Z,99724.80
2023-08-28T02:32:20.463Z,99703.91
2023-08-28T02:37:30.586Z,99703.30
2023-08-28T02:42:38.315Z,99697.88
2023-08-28T02:47:47.038Z,99705.70
2023-08-28T02:52:54.276Z,99705.63
2023-08-28T02:58:01.559Z,99703.30
2023-08-28T03:03:09.880Z,99704.78
2023-08-28T03:08:17.281Z,99704.35
2023-08-28T03:13:24.678Z,99712.20
2023-08-28T03:18:32.033Z,99718.00
2023-08-28T03:23:41.484Z,99715.55
2023-08-28T03:28:49.102Z,99714.58
2023-08-28T03:33:56.485Z,99725.87
2023-08-28T03:39:03.686Z,99736.64
2023-08-28T03:44:11.133Z,99743.12
2023-08-28T03:49:18.434Z,99749.08
2023-08-28T03:54:25.733Z,99754.71
2023-08-28T03:59:33.455Z,99756.44
2023-08-28T04:04:40.879Z,99763.61
2023-08-28T04:09:48.194Z,99764.67
2023-08-28T04:14:56.045Z,99766.25
2023-08-28T04:20:13.946Z,99785.47
2023-08-28T04:25:21.368Z,99808.20
2023-08-28T04:30:28.744Z,99803.60
2023-08-28T04:35:36.012Z,99798.08
2023-08-28T04:40:43.367Z,99786.23
2023-08-28T04:45:52.455Z,99784.69
2023-08-28T04:50:59.955Z,99785.01
2023-08-28T04:56:07.615Z,99777.12
2023-08-28T05:01:14.926Z,99775.26
2023-08-28T05:06:22.199Z,99768.44
2023-08-28T05:11:29.401Z,99767.78
2023-08-28T05:16:36.934Z,99779.05
2023-08-28T05:21:44.249Z,99792.99
2023-08-28T05:26:52.598Z,99794.24
2023-08-28T05:32:00.334Z,99805.36
2023-08-28T05:37:08.504Z,99805.80
2023-08-28T05:42:15.970Z,99811.61
2023-08-28T05:47:23.178Z,99811.95
2023-08-28T05:52:30.673Z,99808.03
2023-08-28T05:57:38.582Z,99809.89
2023-08-28T06:02:46.481Z,99802.25
2023-08-28T06:07:53.974Z,99786.61
2023-08-28T06:13:01.703Z,99787.20
2023-08-28T06:18:11.870Z,99794.13
2023-08-28T06:23:19.311Z,99799.67
2023-08-28T06:28:27.001Z,99814.58
2023-08-28T06:33:34.190Z,99814.52
2023-08-28T06:38:41.656Z,99804.89
2023-08-28T06:43:50.852Z,99787.80
2023-08-28T06:48:58.342Z,99772.75
2023-08-28T06:54:05.820Z,99754.73
2023-08-28T06:59:13.110Z,99745.14
2023-08-28T07:04:20.491Z,99726.10
2023-08-28T07:09:27.974Z,99728.61
2023-08-28T07:14:35.174Z,99734.77
2023-08-28T07:19:42.594Z,99739.48
2023-08-28T07:24:49.866Z,99743.40
2023-08-28T07:29:57.696Z,99755.27
2023-08-28T07:35:07.055Z,99769.96
2023-08-28T07:40:14.424Z,99779.36
2023-08-28T07:45:21.865Z,99799.00
2023-08-28T07:50:30.834Z,99825.13
2023-08-28T07:55:38.471Z,99840.42
2023-08-28T08:00:46.054Z,99857.25
2023-08-28T08:05:55.967Z,99872.48
2023-08-28T08:11:03.208Z,99869.07
2023-08-28T08:16:10.548Z,99883.40
2023-08-28T08:21:21.318Z,99881.19
2023-08-28T08:26:29.546Z,99860.27
2023-08-28T08:31:37.584Z,99813.02
2023-08-28T08:36:44.855Z,99826.92
2023-08-28T08:41:52.134Z,99841.93
2023-08-28T08:47:00.034Z,99816.95
2023-08-28T08:52:10.768Z,99816.13
2023-08-28T08:57:23.820Z,99825.77
2023-08-28T09:02:31.927Z,99819.27
2023-08-28T09:07:39.702Z,99811.30
2023-08-28T09:12:47.562Z,99807.56
2023-08-28T09:17:55.398Z,99802.41
2023-08-28T09:23:02.856Z,99802.29
2023-08-28T09:28:10.750Z,99780.20
2023-08-28T09:33:17.989Z,99770.27
2023-08-28T09:38:27.972Z,99778.92
2023-08-28T09:43:39.262Z,99782.55
2023-08-28T09:48:47.176Z,99779.42
2023-08-28T09:54:02.980Z,99779.07
2023-08-28T09:59:13.242Z,99783.27
2023-08-28T10:04:23.521Z,99782.95
2023-08-28T10:09:33.734Z,99766.78
2023-08-28T10:14:42.059Z,99764.84
2023-08-28T10:19:59.431Z,99756.58
2023-08-28T10:25:08.689Z,99767.03
2023-08-28T10:30:17.802Z,99754.89
2023-08-28T10:35:25.358Z,99747.92
2023-08-28T10:40:34.944Z,99745.76
2023-08-28T10:45:46.057Z,99745.84
2023-08-28T10:50:59.564Z,99746.28
2023-08-28T10:56:09.074Z,99735.10
2023-08-28T11:01:17.894Z,99734.45
2023-08-28T11:06:44.281Z,99735.59
2023-08-28T11:11:51.728Z,99733.77
2023-08-28T11:17:08.007Z,99737.17
2023-08-28T11:22:16.103Z,99735.26
2023-08-28T11:27:46.307Z,99737.00
2023-08-28T11:32:53.065Z,99732.08
2023-08-28T11:38:02.801Z,99734.72
2023-08-28T11:43:10.000Z,99734.26
2023-08-28T11:48:18.191Z,99734.02
2023-08-28T11:53:34.355Z,99743.11
2023-08-28T11:58:43.334Z,99743.52
2023-08-28T12:03:56.972Z,99730.11
2023-08-28T12:09:06.096Z,99727.83
2023-08-28T12:14:20.146Z,99715.68
2023-08-28T12:19:27.480Z,99718.13
2023-08-28T12:24:34.830Z,99722.33
2023-08-28T12:29:43.558Z,99717.27
2023-08-28T12:34:51.138Z,99712.21
2023-08-28T12:40:00.213Z,99700.58
2023-08-28T12:45:09.129Z,99695.17
2023-08-28T12:50:21.067Z,99684.73
2023-08-28T12:55:32.108Z,99684.69
2023-08-28T13:00:40.281Z,99687.50
2023-08-28T13:05:47.550Z,99694.64
2023-08-28T13:10:55.433Z,99705.83
2023-08-28T13:16:03.671Z,99694.69
2023-08-28T13:21:12.093Z,99691.25
2023-08-28T13:26:22.959Z,99702.84
2023-08-28T13:31:32.842Z,99702.67
2023-08-28T13:36:39.767Z,99693.05
2023-08-28T13:41:46.942Z,99700.22
2023-08-28T13:46:54.315Z,99702.40
2023-08-28T13:52:01.626Z,99700.88
2023-08-28T13:57:09.430Z,99691.23
2023-08-28T14:02:16.791Z,99694.41
2023-08-28T14:07:24.487Z,99700.79
2023-08-28T14:12:31.819Z,99695.67
2023-08-28T14:17:40.893Z,99697.73
2023-08-28T14:22:48.679Z,99700.79
2023-08-28T14:28:08.018Z,99699.55
2023-08-28T14:33:23.686Z,99696.14
2023-08-28T14:38:32.526Z,99697.08
2023-08-28T14:43:40.135Z,99687.42
2023-08-28T14:48:47.582Z,99686.72
2023-08-28T14:53:57.420Z,99684.30
2023-08-28T14:59:05.223Z,99689.25
2023-08-28T15:04:12.841Z,99697.72
2023-08-28T15:09:20.946Z,99689.01
2023-08-28T15:14:29.276Z,99702.02
2023-08-28T15:19:36.954Z,99702.29
2023-08-28T15:24:44.702Z,99700.63
2023-08-28T15:29:52.908Z,99699.25
2023-08-28T15:35:01.229Z,99695.86
2023-08-28T15:40:10.179Z,99697.16
2023-08-28T15:45:19.485Z,99702.73
2023-08-28T15:50:27.090Z,99698.70
2023-08-28T15:55:34.677Z,99683.07
2023-08-28T16:00:42.393Z,99697.23
2023-08-28T16:05:50.015Z,99702.40
2023-08-28T16:10:57.950Z,99712.47
2023-08-28T16:16:05.854Z,99716.13
2023-08-28T16:21:13.508Z,99720.95
2023-08-28T16:26:21.360Z,99709.59
2023-08-28T16:31:29.076Z,99689.36
2023-08-28T16:36:36.751Z,99667.89
2023-08-28T16:41:44.301Z,99667.27
2023-08-28T16:46:52.022Z,99667.77
2023-08-28T16:52:02.735Z,99681.16
2023-08-28T16:57:10.257Z,99688.61
2023-08-28T17:02:17.953Z,99680.60
2023-08-28T17:07:26.317Z,99669.23
2023-08-28T17:12:34.320Z,99661.13
2023-08-28T17:17:42.090Z,99655.41
2023-08-28T17:22:49.666Z,99642.46
2023-08-28T17:27:57.553Z,99638.62
2023-08-28T17:33:05.877Z,99644.69
2023-08-28T17:38:14.124Z,99645.02
2023-08-28T17:43:24.098Z,99645.91
2023-08-28T17:48:32.852Z,99641.75
2023-08-28T17:53:40.506Z,99644.91
2023-08-28T17:58:48.893Z,99651.84
2023-08-28T18:03:56.767Z,99645.73
2023-08-28T18:09:06.904Z,99638.72
2023-08-28T18:14:14.771Z,99639.43
2023-08-28T18:19:22.507Z,99633.11
2023-08-28T18:24:30.614Z,99631.76
2023-08-28T18:29:38.406Z,99644.41
2023-08-28T18:34:50.242Z,99633.31
2023-08-28T18:39:58.388Z,99622.13
2023-08-28T18:45:06.795Z,99615.02
2023-08-28T18:50:15.221Z,99609.21
2023-08-28T18:55:32.293Z,99601.51
2023-08-28T19:00:41.044Z,99588.34
2023-08-28T19:05:48.846Z,99586.25
2023-08-28T19:10:59.356Z,99590.00
2023-08-28T19:16:08.253Z,99590.52
2023-08-28T19:21:16.087Z,99582.81
2023-08-28T19:26:24.721Z,99573.85
2023-08-28T19:31:32.852Z,99570.87
2023-08-28T19:36:40.730Z,99555.41
2023-08-28T19:41:48.317Z,99534.69
2023-08-28T19:46:55.807Z,99525.25
2023-08-28T19:52:04.068Z,99542.44
2023-08-28T19:57:11.505Z,99545.00
2023-08-28T20:02:19.733Z,99532.52
2023-08-28T20:07:27.392Z,99551.04
2023-08-28T20:12:34.892Z,99541.63
2023-08-28T20:17:42.351Z,99537.36
2023-08-28T20:22:51.090Z,99532.70
2023-08-28T20:28:00.543Z,99512.52
2023-08-28T20:33:09.425Z,99508.73
2023-08-28T20:38:16.870Z,99543.80
2023-08-28T20:43:24.314Z,99552.33
2023-08-28T20:48:31.934Z,99554.46
2023-08-28T20:53:39.274Z,99536.84
2023-08-28T20:58:46.702Z,99533.25
2023-08-28T21:03:54.408Z,99547.86
2023-08-28T21:09:02.914Z,99523.75
2023-08-28T21:14:10.347Z,99497.46
2023-08-28T21:19:28.134Z,99518.61
2023-08-28T21:24:35.513Z,99485.05
2023-08-28T21:29:42.892Z,99492.02
2023-08-28T21:34:50.162Z,99484.95
2023-08-28T21:39:57.738Z,99481.25
2023-08-28T21:45:08.587Z,99520.16
2023-08-28T21:50:17.306Z,99538.81
2023-08-28T21:55:43.397Z,99552.73
2023-08-28T22:01:10.227Z,99562.23
2023-08-28T22:06:54.062Z,99571.81
2023-08-28T22:12:01.899Z,99582.83
2023-08-28T22:17:14.197Z,99544.16
2023-08-28T22:22:21.582Z,99506.59
2023-08-28T22:27:29.061Z,99537.86
2023-08-28T22:32:36.576Z,99552.55
2023-08-28T22:37:44.052Z,99541.74
2023-08-28T22:42:51.416Z,99505.41
2023-08-28T22:47:58.836Z,99455.39
2023-08-28T22:53:06.997Z,99423.88
2023-08-28T22:58:14.783Z,99394.77
2023-08-28T23:03:22.260Z,99375.96
2023-08-28T23:08:29.740Z,99389.98
2023-08-28T23:13:37.095Z,99438.48
2023-08-28T23:18:44.477Z,99455.96
2023-08-28T23:23:51.862Z,99491.41
2023-08-28T23:28:59.498Z,99488.35
2023-08-28T23:34:07.273Z,99449.77
2023-08-28T23:39:15.078Z,99454.27
2023-08-28T23:44:24.665Z,99454.39
2023-08-28T23:49:32.117Z,99527.98
2023-08-28T23:54:39.553Z,99588.65
2023-08-28T23:59:46.819Z,99572.95
